sensor_id;sensor_type;location;lat;lon;timestamp;temperature;humidity
8928;DHT22;4499;48.304;11.902;2023-01-25T00:01:18;0.60;99.90
8928;DHT22;4499;48.304;11.902;2023-01-25T00:03:49;0.70;99.90
8928;DHT22;4499;48.304;11.902;2023-01-25T00:06:20;0.60;99.90
8928;DHT22;4499;48.304;11.902;2023-01-25T00:08:48;0.60;99.90
8928;DHT22;4499;48.304;11.902;2023-01-25T00:11:18;0.60;99.90
8928;DHT22;4499;48.304;11.902;2023-01-25T00:13:48;0.70;99.90
8928;DHT22;4499;48.304;11.902;2023-01-25T00:16:16;0.60;99.90
8928;DHT22;4499;48.304;11.902;2023-01-25T00:18:45;0.60;99.90
8928;DHT22;4499;48.304;11.902;2023-01-25T00:21:14;0.60;99.90
8928;DHT22;4499;48.304;11.902;2023-01-25T00:23:43;0.60;99.90
8928;DHT22;4499;48.304;11.902;2023-01-25T00:26:12;0.60;99.90
8928;DHT22;4499;48.304;11.902;2023-01-25T00:28:42;0.50;99.90
8928;DHT22;4499;48.304;11.902;2023-01-25T00:31:16;0.50;99.90
8928;DHT22;4499;48.304;11.902;2023-01-25T00:33:50;0.50;99.90
8928;DHT22;4499;48.304;11.902;2023-01-25T00:36:41;0.50;99.90
8928;DHT22;4499;48.304;11.902;2023-01-25T00:39:12;0.50;99.90
8928;DHT22;4499;48.304;11.902;2023-01-25T00:41:40;0.50;99.90
8928;DHT22;4499;48.304;11.902;2023-01-25T00:44:09;0.50;99.90
8928;DHT22;4499;48.304;11.902;2023-01-25T00:46:38;0.50;99.90
8928;DHT22;4499;48.304;11.902;2023-01-25T00:49:07;0.50;99.90
8928;DHT22;4499;48.304;11.902;2023-01-25T00:51:43;0.50;99.90
8928;DHT22;4499;48.304;11.902;2023-01-25T00:54:11;0.40;99.90
8928;DHT22;4499;48.304;11.902;2023-01-25T00:56:39;0.40;99.90
8928;DHT22;4499;48.304;11.902;2023-01-25T00:59:09;0.30;99.90
8928;DHT22;4499;48.304;11.902;2023-01-25T01:01:37;0.30;99.90
8928;DHT22;4499;48.304;11.902;2023-01-25T01:04:08;0.30;99.90
8928;DHT22;4499;48.304;11.902;2023-01-25T01:06:36;0.30;99.90
8928;DHT22;4499;48.304;11.902;2023-01-25T01:09:06;0.30;99.90
8928;DHT22;4499;48.304;11.902;2023-01-25T01:11:34;0.20;99.90
8928;DHT22;4499;48.304;11.902;2023-01-25T01:14:02;0.20;99.90
8928;DHT22;4499;48.304;11.902;2023-01-25T01:16:32;0.20;99.90
8928;DHT22;4499;48.304;11.902;2023-01-25T01:19:00;0.20;99.90
8928;DHT22;4499;48.304;11.902;2023-01-25T01:21:28;0.30;99.90
8928;DHT22;4499;48.304;11.902;2023-01-25T01:24:08;0.30;99.90
8928;DHT22;4499;48.304;11.902;2023-01-25T01:26:36;0.30;99.90
8928;DHT22;4499;48.304;11.902;2023-01-25T01:29:05;0.30;99.90
8928;DHT22;4499;48.304;11.902;2023-01-25T01:31:33;0.30;99.90
8928;DHT22;4499;48.304;11.902;2023-01-25T01:34:01;0.20;99.90
8928;DHT22;4499;48.304;11.902;2023-01-25T01:36:29;0.20;99.90
8928;DHT22;4499;48.304;11.902;2023-01-25T01:38:58;0.20;99.90
8928;DHT22;4499;48.304;11.902;2023-01-25T01:41:30;0.20;99.90
8928;DHT22;4499;48.304;11.902;2023-01-25T01:43:58;0.20;99.90
8928;DHT22;4499;48.304;11.902;2023-01-25T01:46:28;0.20;99.90
8928;DHT22;4499;48.304;11.902;2023-01-25T01:49:02;0.20;99.90
8928;DHT22;4499;48.304;11.902;2023-01-25T01:51:39;0.20;99.90
8928;DHT22;4499;48.304;11.902;2023-01-25T01:54:13;0.20;99.90
8928;DHT22;4499;48.304;11.902;2023-01-25T01:56:51;0.20;99.90
8928;DHT22;4499;48.304;11.902;2023-01-25T01:59:25;0.20;99.90
8928;DHT22;4499;48.304;11.902;2023-01-25T02:01:55;0.20;99.90
8928;DHT22;4499;48.304;11.902;2023-01-25T02:04:24;0.20;99.90
8928;DHT22;4499;48.304;11.902;2023-01-25T02:07:00;0.10;99.90
8928;DHT22;4499;48.304;11.902;2023-01-25T02:09:31;0.20;99.90
8928;DHT22;4499;48.304;11.902;2023-01-25T02:12:02;0.10;99.90
8928;DHT22;4499;48.304;11.902;2023-01-25T02:14:31;0.10;99.90
8928;DHT22;4499;48.304;11.902;2023-01-25T02:17:02;0.20;99.90
8928;DHT22;4499;48.304;11.902;2023-01-25T02:19:39;0.20;99.90
8928;DHT22;4499;48.304;11.902;2023-01-25T02:22:13;0.20;99.90
8928;DHT22;4499;48.304;11.902;2023-01-25T02:24:48;0.20;99.90
8928;DHT22;4499;48.304;11.902;2023-01-25T02:27:19;0.20;99.90
8928;DHT22;4499;48.304;11.902;2023-01-25T02:29:48;0.20;99.90
8928;DHT22;4499;48.304;11.902;2023-01-25T02:32:19;0.20;99.90
8928;DHT22;4499;48.304;11.902;2023-01-25T02:34:47;0.20;99.90
8928;DHT22;4499;48.304;11.902;2023-01-25T02:37:15;0.20;99.90
8928;DHT22;4499;48.304;11.902;2023-01-25T02:39:44;0.20;99.90
8928;DHT22;4499;48.304;11.902;2023-01-25T02:42:12;0.20;99.90
8928;DHT22;4499;48.304;11.902;2023-01-25T02:44:43;0.20;99.90
8928;DHT22;4499;48.304;11.902;2023-01-25T02:47:11;0.20;99.90
8928;DHT22;4499;48.304;11.902;2023-01-25T02:49:42;0.20;99.90
8928;DHT22;4499;48.304;11.902;2023-01-25T02:52:10;0.20;99.90
8928;DHT22;4499;48.304;11.902;2023-01-25T02:54:38;0.20;99.90
8928;DHT22;4499;48.304;11.902;2023-01-25T02:57:06;0.20;99.90
8928;DHT22;4499;48.304;11.902;2023-01-25T02:59:34;0.20;99.90
8928;DHT22;4499;48.304;11.902;2023-01-25T03:02:03;0.20;99.90
8928;DHT22;4499;48.304;11.902;2023-01-25T03:04:31;0.20;99.90
8928;DHT22;4499;48.304;11.902;2023-01-25T03:06:59;0.30;99.90
8928;DHT22;4499;48.304;11.902;2023-01-25T03:09:28;0.20;99.90
8928;DHT22;4499;48.304;11.902;2023-01-25T03:11:56;0.20;99.90
8928;DHT22;4499;48.304;11.902;2023-01-25T03:14:24;0.10;99.90
8928;DHT22;4499;48.304;11.902;2023-01-25T03:16:52;0.20;99.90
8928;DHT22;4499;48.304;11.902;2023-01-25T03:19:21;0.20;99.90
8928;DHT22;4499;48.304;11.902;2023-01-25T03:21:50;0.10;99.90
8928;DHT22;4499;48.304;11.902;2023-01-25T03:24:18;0.10;99.90
8928;DHT22;4499;48.304;11.902;2023-01-25T03:26:46;0.20;99.90
8928;DHT22;4499;48.304;11.902;2023-01-25T03:29:32;0.10;99.90
8928;DHT22;4499;48.304;11.902;2023-01-25T03:32:01;0.10;99.90
8928;DHT22;4499;48.304;11.902;2023-01-25T03:34:30;0.10;99.90
8928;DHT22;4499;48.304;11.902;2023-01-25T03:36:58;0.10;99.90
8928;DHT22;4499;48.304;11.902;2023-01-25T03:39:27;0.10;99.90
8928;DHT22;4499;48.304;11.902;2023-01-25T03:41:55;0.10;99.90
8928;DHT22;4499;48.304;11.902;2023-01-25T03:44:24;0.20;99.90
8928;DHT22;4499;48.304;11.902;2023-01-25T03:46:52;0.20;99.90
8928;DHT22;4499;48.304;11.902;2023-01-25T03:49:20;0.10;99.90
8928;DHT22;4499;48.304;11.902;2023-01-25T03:51:50;0.10;99.90
8928;DHT22;4499;48.304;11.902;2023-01-25T03:54:18;0.10;99.90
8928;DHT22;4499;48.304;11.902;2023-01-25T03:56:46;0.10;99.90
8928;DHT22;4499;48.304;11.902;2023-01-25T03:59:14;0.10;99.90
8928;DHT22;4499;48.304;11.902;2023-01-25T04:01:42;0.00;99.90
8928;DHT22;4499;48.304;11.902;2023-01-25T04:04:12;0.00;99.90
8928;DHT22;4499;48.304;11.902;2023-01-25T04:06:41;0.00;99.90
8928;DHT22;4499;48.304;11.902;2023-01-25T04:09:10;0.00;99.90
8928;DHT22;4499;48.304;11.902;2023-01-25T04:11:40;0.00;99.90
8928;DHT22;4499;48.304;11.902;2023-01-25T04:14:09;-0.10;99.90
8928;DHT22;4499;48.304;11.902;2023-01-25T04:16:37;0.00;99.90
8928;DHT22;4499;48.304;11.902;2023-01-25T04:19:06;0.00;99.90
8928;DHT22;4499;48.304;11.902;2023-01-25T04:21:34;-0.10;99.90
8928;DHT22;4499;48.304;11.902;2023-01-25T04:24:02;-0.10;99.90
8928;DHT22;4499;48.304;11.902;2023-01-25T04:26:33;-0.10;99.90
8928;DHT22;4499;48.304;11.902;2023-01-25T04:29:01;-0.10;99.90
8928;DHT22;4499;48.304;11.902;2023-01-25T04:31:29;-0.10;99.90
8928;DHT22;4499;48.304;11.902;2023-01-25T04:33:58;-0.10;99.90
8928;DHT22;4499;48.304;11.902;2023-01-25T04:36:26;-0.10;99.90
8928;DHT22;4499;48.304;11.902;2023-01-25T04:38:54;-0.10;99.90
8928;DHT22;4499;48.304;11.902;2023-01-25T04:41:22;-0.10;99.90
8928;DHT22;4499;48.304;11.902;2023-01-25T04:43:53;0.00;99.90
8928;DHT22;4499;48.304;11.902;2023-01-25T04:46:22;-0.10;99.90
8928;DHT22;4499;48.304;11.902;2023-01-25T04:48:50;0.00;99.90
8928;DHT22;4499;48.304;11.902;2023-01-25T04:51:18;-0.10;99.90
8928;DHT22;4499;48.304;11.902;2023-01-25T04:53:46;0.00;99.90
8928;DHT22;4499;48.304;11.902;2023-01-25T04:56:14;-0.10;99.90
8928;DHT22;4499;48.304;11.902;2023-01-25T04:58:42;-0.10;99.90
8928;DHT22;4499;48.304;11.902;2023-01-25T05:01:13;-0.10;99.90
8928;DHT22;4499;48.304;11.902;2023-01-25T05:03:41;0.00;99.90
8928;DHT22;4499;48.304;11.902;2023-01-25T05:06:09;0.00;99.90
8928;DHT22;4499;48.304;11.902;2023-01-25T05:08:40;0.00;99.90
8928;DHT22;4499;48.304;11.902;2023-01-25T05:11:08;0.00;99.90
8928;DHT22;4499;48.304;11.902;2023-01-25T05:13:36;0.00;99.90
8928;DHT22;4499;48.304;11.902;2023-01-25T05:16:05;0.00;99.90
8928;DHT22;4499;48.304;11.902;2023-01-25T05:18:36;0.00;99.90
8928;DHT22;4499;48.304;11.902;2023-01-25T05:21:14;-0.10;99.90
8928;DHT22;4499;48.304;11.902;2023-01-25T05:23:56;-0.10;99.90
8928;DHT22;4499;48.304;11.902;2023-01-25T05:26:24;-0.10;99.90
8928;DHT22;4499;48.304;11.902;2023-01-25T05:29:07;0.00;99.90
8928;DHT22;4499;48.304;11.902;2023-01-25T05:31:35;0.00;99.90
8928;DHT22;4499;48.304;11.902;2023-01-25T05:34:06;0.00;99.90
8928;DHT22;4499;48.304;11.902;2023-01-25T05:36:37;0.00;99.90
8928;DHT22;4499;48.304;11.902;2023-01-25T05:39:05;0.00;99.90
8928;DHT22;4499;48.304;11.902;2023-01-25T05:41:34;0.00;99.90
8928;DHT22;4499;48.304;11.902;2023-01-25T05:44:02;-0.10;99.90
8928;DHT22;4499;48.304;11.902;2023-01-25T05:46:31;-0.10;99.90
8928;DHT22;4499;48.304;11.902;2023-01-25T05:48:59;-0.10;99.90
8928;DHT22;4499;48.304;11.902;2023-01-25T05:51:28;-0.10;99.90
8928;DHT22;4499;48.304;11.902;2023-01-25T05:53:57;-0.10;99.90
8928;DHT22;4499;48.304;11.902;2023-01-25T05:56:25;-0.20;99.90
8928;DHT22;4499;48.304;11.902;2023-01-25T05:58:54;-0.20;99.90
8928;DHT22;4499;48.304;11.902;2023-01-25T06:01:24;-0.30;99.90
8928;DHT22;4499;48.304;11.902;2023-01-25T06:03:52;-0.30;99.90
8928;DHT22;4499;48.304;11.902;2023-01-25T06:06:24;-0.30;99.90
8928;DHT22;4499;48.304;11.902;2023-01-25T06:08:53;-0.30;99.90
8928;DHT22;4499;48.304;11.902;2023-01-25T06:11:23;-0.30;99.90
8928;DHT22;4499;48.304;11.902;2023-01-25T06:13:51;-0.20;99.90
8928;DHT22;4499;48.304;11.902;2023-01-25T06:16:19;-0.20;99.90
8928;DHT22;4499;48.304;11.902;2023-01-25T06:18:48;-0.20;99.90
8928;DHT22;4499;48.304;11.902;2023-01-25T06:21:16;-0.20;99.90
8928;DHT22;4499;48.304;11.902;2023-01-25T06:23:44;-0.20;99.90
8928;DHT22;4499;48.304;11.902;2023-01-25T06:26:15;-0.20;99.90
8928;DHT22;4499;48.304;11.902;2023-01-25T06:28:43;-0.10;99.90
8928;DHT22;4499;48.304;11.902;2023-01-25T06:31:13;-0.20;99.90
8928;DHT22;4499;48.304;11.902;2023-01-25T06:33:42;-0.20;99.90
8928;DHT22;4499;48.304;11.902;2023-01-25T06:36:12;-0.20;99.90
8928;DHT22;4499;48.304;11.902;2023-01-25T06:38:41;-0.30;99.90
8928;DHT22;4499;48.304;11.902;2023-01-25T06:41:11;-0.40;99.90
8928;DHT22;4499;48.304;11.902;2023-01-25T06:43:41;-0.40;99.90
8928;DHT22;4499;48.304;11.902;2023-01-25T06:46:09;-0.40;99.90
8928;DHT22;4499;48.304;11.902;2023-01-25T06:48:39;-0.40;99.90
8928;DHT22;4499;48.304;11.902;2023-01-25T06:51:10;-0.40;99.90
8928;DHT22;4499;48.304;11.902;2023-01-25T06:53:40;-0.30;99.90
8928;DHT22;4499;48.304;11.902;2023-01-25T06:56:10;-0.40;99.90
8928;DHT22;4499;48.304;11.902;2023-01-25T06:58:39;-0.30;99.90
8928;DHT22;4499;48.304;11.902;2023-01-25T07:01:12;-0.30;99.90
8928;DHT22;4499;48.304;11.902;2023-01-25T07:03:41;-0.30;99.90
8928;DHT22;4499;48.304;11.902;2023-01-25T07:06:10;-0.30;99.90
8928;DHT22;4499;48.304;11.902;2023-01-25T07:08:38;-0.30;99.90
8928;DHT22;4499;48.304;11.902;2023-01-25T07:11:08;-0.30;99.90
8928;DHT22;4499;48.304;11.902;2023-01-25T07:13:40;-0.40;99.90
8928;DHT22;4499;48.304;11.902;2023-01-25T07:16:13;-0.30;99.90
8928;DHT22;4499;48.304;11.902;2023-01-25T07:18:41;-0.30;99.90
8928;DHT22;4499;48.304;11.902;2023-01-25T07:21:13;-0.40;99.90
8928;DHT22;4499;48.304;11.902;2023-01-25T07:23:42;-0.40;99.90
8928;DHT22;4499;48.304;11.902;2023-01-25T07:26:14;-0.40;99.90
8928;DHT22;4499;48.304;11.902;2023-01-25T07:28:44;-0.40;99.90
8928;DHT22;4499;48.304;11.902;2023-01-25T07:31:13;-0.40;99.90
8928;DHT22;4499;48.304;11.902;2023-01-25T07:33:42;-0.30;99.90
8928;DHT22;4499;48.304;11.902;2023-01-25T07:36:10;-0.30;99.90
8928;DHT22;4499;48.304;11.902;2023-01-25T07:38:38;-0.30;99.90
8928;DHT22;4499;48.304;11.902;2023-01-25T07:41:08;-0.30;99.90
8928;DHT22;4499;48.304;11.902;2023-01-25T07:43:40;-0.30;99.90
8928;DHT22;4499;48.304;11.902;2023-01-25T07:46:19;-0.30;99.90
8928;DHT22;4499;48.304;11.902;2023-01-25T07:48:52;-0.30;99.90
8928;DHT22;4499;48.304;11.902;2023-01-25T07:51:22;-0.30;99.90
8928;DHT22;4499;48.304;11.902;2023-01-25T07:53:54;-0.30;99.90
8928;DHT22;4499;48.304;11.902;2023-01-25T07:56:25;-0.30;99.90
8928;DHT22;4499;48.304;11.902;2023-01-25T07:58:54;-0.30;99.90
8928;DHT22;4499;48.304;11.902;2023-01-25T08:01:24;-0.30;99.90
8928;DHT22;4499;48.304;11.902;2023-01-25T08:03:54;-0.30;99.90
8928;DHT22;4499;48.304;11.902;2023-01-25T08:06:24;-0.30;99.90
8928;DHT22;4499;48.304;11.902;2023-01-25T08:08:53;-0.20;99.90
8928;DHT22;4499;48.304;11.902;2023-01-25T08:11:24;-0.30;99.90
8928;DHT22;4499;48.304;11.902;2023-01-25T08:13:56;-0.20;99.90
8928;DHT22;4499;48.304;11.902;2023-01-25T08:16:27;-0.30;99.90
8928;DHT22;4499;48.304;11.902;2023-01-25T08:18:57;-0.30;99.90
8928;DHT22;4499;48.304;11.902;2023-01-25T08:21:27;-0.30;99.90
8928;DHT22;4499;48.304;11.902;2023-01-25T08:23:57;-0.30;99.90
8928;DHT22;4499;48.304;11.902;2023-01-25T08:26:32;-0.20;99.90
8928;DHT22;4499;48.304;11.902;2023-01-25T08:29:02;-0.20;99.90
8928;DHT22;4499;48.304;11.902;2023-01-25T08:31:33;-0.20;99.90
8928;DHT22;4499;48.304;11.902;2023-01-25T08:34:03;-0.30;99.90
8928;DHT22;4499;48.304;11.902;2023-01-25T08:36:33;-0.30;99.90
8928;DHT22;4499;48.304;11.902;2023-01-25T08:39:06;-0.30;99.90
8928;DHT22;4499;48.304;11.902;2023-01-25T08:41:36;-0.30;99.90
8928;DHT22;4499;48.304;11.902;2023-01-25T08:44:09;-0.30;99.90
8928;DHT22;4499;48.304;11.902;2023-01-25T08:46:39;-0.30;99.90
8928;DHT22;4499;48.304;11.902;2023-01-25T08:49:08;-0.30;99.90
8928;DHT22;4499;48.304;11.902;2023-01-25T08:51:37;-0.30;99.90
8928;DHT22;4499;48.304;11.902;2023-01-25T08:54:06;-0.20;99.90
8928;DHT22;4499;48.304;11.902;2023-01-25T08:56:35;-0.20;99.90
8928;DHT22;4499;48.304;11.902;2023-01-25T08:59:04;-0.30;99.90
8928;DHT22;4499;48.304;11.902;2023-01-25T09:01:32;-0.30;99.90
8928;DHT22;4499;48.304;11.902;2023-01-25T09:04:02;-0.30;99.90
8928;DHT22;4499;48.304;11.902;2023-01-25T09:06:31;-0.30;99.90
8928;DHT22;4499;48.304;11.902;2023-01-25T09:08:59;-0.20;99.90
8928;DHT22;4499;48.304;11.902;2023-01-25T09:11:28;-0.20;99.90
8928;DHT22;4499;48.304;11.902;2023-01-25T09:13:56;-0.30;99.90
8928;DHT22;4499;48.304;11.902;2023-01-25T09:16:24;-0.30;99.90
8928;DHT22;4499;48.304;11.902;2023-01-25T09:18:57;-0.30;99.90
8928;DHT22;4499;48.304;11.902;2023-01-25T09:21:27;-0.30;99.90
8928;DHT22;4499;48.304;11.902;2023-01-25T09:23:56;-0.30;99.90
8928;DHT22;4499;48.304;11.902;2023-01-25T09:26:34;-0.30;99.90
8928;DHT22;4499;48.304;11.902;2023-01-25T09:29:03;-0.30;99.90
8928;DHT22;4499;48.304;11.902;2023-01-25T09:31:33;-0.30;99.90
8928;DHT22;4499;48.304;11.902;2023-01-25T09:34:02;-0.30;99.90
8928;DHT22;4499;48.304;11.902;2023-01-25T09:36:31;-0.30;99.90
8928;DHT22;4499;48.304;11.902;2023-01-25T09:38:59;-0.30;99.90
8928;DHT22;4499;48.304;11.902;2023-01-25T09:41:58;-0.20;99.90
8928;DHT22;4499;48.304;11.902;2023-01-25T09:44:51;-0.30;99.90
8928;DHT22;4499;48.304;11.902;2023-01-25T09:47:26;-0.30;99.90
8928;DHT22;4499;48.304;11.902;2023-01-25T09:50:12;-0.20;99.90
8928;DHT22;4499;48.304;11.902;2023-01-25T09:53:03;-0.20;99.90
8928;DHT22;4499;48.304;11.902;2023-01-25T09:55:34;-0.20;99.90
8928;DHT22;4499;48.304;11.902;2023-01-25T09:58:03;-0.20;99.90
8928;DHT22;4499;48.304;11.902;2023-01-25T10:00:39;-0.20;99.90
8928;DHT22;4499;48.304;11.902;2023-01-25T10:03:15;-0.20;99.90
8928;DHT22;4499;48.304;11.902;2023-01-25T10:05:49;-0.10;99.90
8928;DHT22;4499;48.304;11.902;2023-01-25T10:08:25;-0.10;99.90
8928;DHT22;4499;48.304;11.902;2023-01-25T10:10:59;0.00;99.90
8928;DHT22;4499;48.304;11.902;2023-01-25T10:13:31;0.00;99.90
8928;DHT22;4499;48.304;11.902;2023-01-25T10:16:05;-0.10;99.90
8928;DHT22;4499;48.304;11.902;2023-01-25T10:18:58;-0.10;99.90
8928;DHT22;4499;48.304;11.902;2023-01-25T10:21:32;-0.10;99.90
8928;DHT22;4499;48.304;11.902;2023-01-25T10:24:27;-0.30;99.90
8928;DHT22;4499;48.304;11.902;2023-01-25T10:27:06;-0.20;99.90
8928;DHT22;4499;48.304;11.902;2023-01-25T10:29:43;-0.20;99.90
8928;DHT22;4499;48.304;11.902;2023-01-25T10:32:17;-0.30;99.90
8928;DHT22;4499;48.304;11.902;2023-01-25T10:34:48;-0.20;99.90
8928;DHT22;4499;48.304;11.902;2023-01-25T10:37:35;-0.20;99.90
8928;DHT22;4499;48.304;11.902;2023-01-25T10:40:14;-0.10;99.90
8928;DHT22;4499;48.304;11.902;2023-01-25T10:42:50;-0.20;99.90
8928;DHT22;4499;48.304;11.902;2023-01-25T10:45:20;-0.20;99.90
8928;DHT22;4499;48.304;11.902;2023-01-25T10:47:51;-0.30;99.90
8928;DHT22;4499;48.304;11.902;2023-01-25T10:50:41;-0.30;99.90
8928;DHT22;4499;48.304;11.902;2023-01-25T10:53:21;-0.30;99.90
8928;DHT22;4499;48.304;11.902;2023-01-25T10:59:15;-0.30;99.90
8928;DHT22;4499;48.304;11.902;2023-01-25T11:01:44;-0.20;99.90
8928;DHT22;4499;48.304;11.902;2023-01-25T11:04:30;-0.20;99.90
8928;DHT22;4499;48.304;11.902;2023-01-25T11:06:59;-0.20;99.90
8928;DHT22;4499;48.304;11.902;2023-01-25T11:09:31;-0.20;99.90
8928;DHT22;4499;48.304;11.902;2023-01-25T11:12:00;-0.20;99.90
8928;DHT22;4499;48.304;11.902;2023-01-25T11:14:31;-0.20;99.90
8928;DHT22;4499;48.304;11.902;2023-01-25T11:17:02;-0.10;99.90
8928;DHT22;4499;48.304;11.902;2023-01-25T11:19:33;-0.10;99.90
8928;DHT22;4499;48.304;11.902;2023-01-25T11:22:04;-0.10;99.90
8928;DHT22;4499;48.304;11.902;2023-01-25T11:24:34;-0.20;99.90
8928;DHT22;4499;48.304;11.902;2023-01-25T11:27:17;-0.20;99.90
8928;DHT22;4499;48.304;11.902;2023-01-25T11:30:06;-0.20;99.90
8928;DHT22;4499;48.304;11.902;2023-01-25T11:32:38;-0.20;99.90
8928;DHT22;4499;48.304;11.902;2023-01-25T11:35:12;-0.20;99.90
8928;DHT22;4499;48.304;11.902;2023-01-25T11:38:02;-0.20;99.90
8928;DHT22;4499;48.304;11.902;2023-01-25T11:40:36;-0.20;99.90
8928;DHT22;4499;48.304;11.902;2023-01-25T11:43:16;-0.20;99.90
8928;DHT22;4499;48.304;11.902;2023-01-25T11:49:10;-0.20;99.90
8928;DHT22;4499;48.304;11.902;2023-01-25T11:51:47;-0.20;99.90
8928;DHT22;4499;48.304;11.902;2023-01-25T11:57:28;-0.20;99.90
8928;DHT22;4499;48.304;11.902;2023-01-25T12:00:13;-0.10;99.90
8928;DHT22;4499;48.304;11.902;2023-01-25T12:03:08;-0.20;99.90
8928;DHT22;4499;48.304;11.902;2023-01-25T12:05:49;-0.20;99.90
8928;DHT22;4499;48.304;11.902;2023-01-25T12:08:37;-0.20;99.90
8928;DHT22;4499;48.304;11.902;2023-01-25T12:11:14;-0.10;99.90
8928;DHT22;4499;48.304;11.902;2023-01-25T12:13:50;-0.10;99.90
8928;DHT22;4499;48.304;11.902;2023-01-25T12:16:39;0.00;99.90
8928;DHT22;4499;48.304;11.902;2023-01-25T12:19:26;0.00;99.90
8928;DHT22;4499;48.304;11.902;2023-01-25T12:22:09;0.00;99.90
8928;DHT22;4499;48.304;11.902;2023-01-25T12:24:45;0.10;99.90
8928;DHT22;4499;48.304;11.902;2023-01-25T12:27:28;0.00;99.90
8928;DHT22;4499;48.304;11.902;2023-01-25T12:30:02;0.10;99.90
8928;DHT22;4499;48.304;11.902;2023-01-25T12:32:42;0.10;99.90
8928;DHT22;4499;48.304;11.902;2023-01-25T12:35:22;0.10;99.90
8928;DHT22;4499;48.304;11.902;2023-01-25T12:37:55;0.10;99.90
8928;DHT22;4499;48.304;11.902;2023-01-25T12:40:32;0.10;99.90
8928;DHT22;4499;48.304;11.902;2023-01-25T12:43:01;0.00;99.90
8928;DHT22;4499;48.304;11.902;2023-01-25T12:45:32;0.00;99.90
8928;DHT22;4499;48.304;11.902;2023-01-25T12:48:11;0.00;99.90
8928;DHT22;4499;48.304;11.902;2023-01-25T12:50:46;0.10;99.90
8928;DHT22;4499;48.304;11.902;2023-01-25T12:53:19;1.60;99.90
8928;DHT22;4499;48.304;11.902;2023-01-25T12:55:49;1.20;99.90
8928;DHT22;4499;48.304;11.902;2023-01-25T12:58:25;0.90;99.90
8928;DHT22;4499;48.304;11.902;2023-01-25T13:01:09;0.70;99.90
8928;DHT22;4499;48.304;11.902;2023-01-25T13:03:57;0.60;99.90
8928;DHT22;4499;48.304;11.902;2023-01-25T13:06:35;0.40;99.90
8928;DHT22;4499;48.304;11.902;2023-01-25T13:09:11;0.30;99.90
8928;DHT22;4499;48.304;11.902;2023-01-25T13:11:42;0.30;99.90
8928;DHT22;4499;48.304;11.902;2023-01-25T13:14:25;0.20;99.90
8928;DHT22;4499;48.304;11.902;2023-01-25T13:17:09;0.20;99.90
8928;DHT22;4499;48.304;11.902;2023-01-25T13:19:39;0.20;99.90
8928;DHT22;4499;48.304;11.902;2023-01-25T13:22:11;0.20;99.90
8928;DHT22;4499;48.304;11.902;2023-01-25T13:25:05;0.10;99.90
8928;DHT22;4499;48.304;11.902;2023-01-25T13:27:35;0.00;99.90
8928;DHT22;4499;48.304;11.902;2023-01-25T13:30:25;0.00;99.90
8928;DHT22;4499;48.304;11.902;2023-01-25T13:33:00;0.00;99.90
8928;DHT22;4499;48.304;11.902;2023-01-25T13:35:40;0.00;99.90
8928;DHT22;4499;48.304;11.902;2023-01-25T13:38:31;-0.10;99.90
8928;DHT22;4499;48.304;11.902;2023-01-25T13:41:15;-0.10;99.90
8928;DHT22;4499;48.304;11.902;2023-01-25T13:43:46;0.00;99.90
8928;DHT22;4499;48.304;11.902;2023-01-25T13:46:17;0.00;99.90
8928;DHT22;4499;48.304;11.902;2023-01-25T13:48:58;0.00;99.90
8928;DHT22;4499;48.304;11.902;2023-01-25T13:51:29;0.00;99.90
8928;DHT22;4499;48.304;11.902;2023-01-25T13:54:03;-0.10;99.90
8928;DHT22;4499;48.304;11.902;2023-01-25T13:56:33;0.00;99.90
8928;DHT22;4499;48.304;11.902;2023-01-25T13:59:02;0.00;99.90
8928;DHT22;4499;48.304;11.902;2023-01-25T14:01:33;-0.10;99.90
8928;DHT22;4499;48.304;11.902;2023-01-25T14:04:03;-0.10;99.90
8928;DHT22;4499;48.304;11.902;2023-01-25T14:06:33;-0.10;99.90
8928;DHT22;4499;48.304;11.902;2023-01-25T14:09:11;-0.10;99.90
8928;DHT22;4499;48.304;11.902;2023-01-25T14:11:44;-0.20;99.90
8928;DHT22;4499;48.304;11.902;2023-01-25T14:14:18;-0.20;99.90
8928;DHT22;4499;48.304;11.902;2023-01-25T14:17:00;-0.20;99.90
8928;DHT22;4499;48.304;11.902;2023-01-25T14:19:30;-0.20;99.90
8928;DHT22;4499;48.304;11.902;2023-01-25T14:22:21;-0.20;99.90
8928;DHT22;4499;48.304;11.902;2023-01-25T14:25:09;-0.30;99.90
8928;DHT22;4499;48.304;11.902;2023-01-25T14:27:43;-0.30;99.90
8928;DHT22;4499;48.304;11.902;2023-01-25T14:30:17;-0.40;99.90
8928;DHT22;4499;48.304;11.902;2023-01-25T14:32:47;-0.40;99.90
8928;DHT22;4499;48.304;11.902;2023-01-25T14:35:32;-0.30;99.90
8928;DHT22;4499;48.304;11.902;2023-01-25T14:38:33;-0.30;99.90
8928;DHT22;4499;48.304;11.902;2023-01-25T14:41:10;-0.30;99.90
8928;DHT22;4499;48.304;11.902;2023-01-25T14:43:40;-0.30;99.90
8928;DHT22;4499;48.304;11.902;2023-01-25T14:46:26;-0.40;99.90
8928;DHT22;4499;48.304;11.902;2023-01-25T14:49:17;-0.40;99.90
8928;DHT22;4499;48.304;11.902;2023-01-25T14:51:56;-0.40;99.90
8928;DHT22;4499;48.304;11.902;2023-01-25T14:54:26;-0.40;99.90
8928;DHT22;4499;48.304;11.902;2023-01-25T14:56:58;-0.40;99.90
8928;DHT22;4499;48.304;11.902;2023-01-25T14:59:31;-0.40;99.90
8928;DHT22;4499;48.304;11.902;2023-01-25T15:02:03;-0.40;99.90
8928;DHT22;4499;48.304;11.902;2023-01-25T15:04:38;-0.40;99.90
8928;DHT22;4499;48.304;11.902;2023-01-25T15:07:29;-0.40;99.90
8928;DHT22;4499;48.304;11.902;2023-01-25T15:10:02;-0.40;99.90
8928;DHT22;4499;48.304;11.902;2023-01-25T15:12:32;-0.40;99.90
8928;DHT22;4499;48.304;11.902;2023-01-25T15:15:00;-0.40;99.90
8928;DHT22;4499;48.304;11.902;2023-01-25T15:17:38;-0.50;99.90
8928;DHT22;4499;48.304;11.902;2023-01-25T15:20:25;-0.40;99.90
8928;DHT22;4499;48.304;11.902;2023-01-25T15:22:55;-0.50;99.90
8928;DHT22;4499;48.304;11.902;2023-01-25T15:25:24;-0.50;99.90
8928;DHT22;4499;48.304;11.902;2023-01-25T15:27:53;-0.40;99.90
8928;DHT22;4499;48.304;11.902;2023-01-25T15:30:22;-0.40;99.90
8928;DHT22;4499;48.304;11.902;2023-01-25T15:32:50;-0.40;99.90
8928;DHT22;4499;48.304;11.902;2023-01-25T15:35:19;-0.40;99.90
8928;DHT22;4499;48.304;11.902;2023-01-25T15:37:48;-0.40;99.90
8928;DHT22;4499;48.304;11.902;2023-01-25T15:40:16;-0.40;99.90
8928;DHT22;4499;48.304;11.902;2023-01-25T15:42:44;-0.40;99.90
8928;DHT22;4499;48.304;11.902;2023-01-25T15:45:13;-0.40;99.90
8928;DHT22;4499;48.304;11.902;2023-01-25T15:47:42;-0.40;99.90
8928;DHT22;4499;48.304;11.902;2023-01-25T15:50:17;-0.30;99.90
8928;DHT22;4499;48.304;11.902;2023-01-25T15:52:45;-0.40;99.90
8928;DHT22;4499;48.304;11.902;2023-01-25T15:55:14;-0.40;99.90
8928;DHT22;4499;48.304;11.902;2023-01-25T15:57:42;-0.40;99.90
8928;DHT22;4499;48.304;11.902;2023-01-25T16:00:18;-0.40;99.90
8928;DHT22;4499;48.304;11.902;2023-01-25T16:02:49;-0.40;99.90
8928;DHT22;4499;48.304;11.902;2023-01-25T16:05:17;-0.40;99.90
8928;DHT22;4499;48.304;11.902;2023-01-25T16:07:45;-0.40;99.90
8928;DHT22;4499;48.304;11.902;2023-01-25T16:10:21;-0.40;99.90
8928;DHT22;4499;48.304;11.902;2023-01-25T16:12:49;-0.50;99.90
8928;DHT22;4499;48.304;11.902;2023-01-25T16:15:19;-0.60;99.90
8928;DHT22;4499;48.304;11.902;2023-01-25T16:17:48;-0.60;99.90
8928;DHT22;4499;48.304;11.902;2023-01-25T16:20:18;-0.60;99.90
8928;DHT22;4499;48.304;11.902;2023-01-25T16:22:46;-0.60;99.90
8928;DHT22;4499;48.304;11.902;2023-01-25T16:25:14;-0.60;99.90
8928;DHT22;4499;48.304;11.902;2023-01-25T16:27:43;-0.50;99.90
8928;DHT22;4499;48.304;11.902;2023-01-25T16:30:17;-0.50;99.90
8928;DHT22;4499;48.304;11.902;2023-01-25T16:32:51;-0.60;99.90
8928;DHT22;4499;48.304;11.902;2023-01-25T16:35:19;-0.50;99.90